sensor_id;sensor_type;location;lat;lon;timestamp;P1;durP1;ratioP1;P2;durP2;ratioP2
3261;SDS011;1643;47.746;9.000;2023-03-29T00:00:20;2.47;;;2.27;;
3261;SDS011;1643;47.746;9.000;2023-03-29T00:02:46;3.20;;;2.90;;
3261;SDS011;1643;47.746;9.000;2023-03-29T00:05:13;2.40;;;2.20;;
3261;SDS011;1643;47.746;9.000;2023-03-29T00:07:40;4.93;;;3.00;;
3261;SDS011;1643;47.746;9.000;2023-03-29T00:10:06;3.40;;;2.40;;
3261;SDS011;1643;47.746;9.000;2023-03-29T00:12:35;4.33;;;2.80;;
3261;SDS011;1643;47.746;9.000;2023-03-29T00:15:02;2.97;;;2.67;;
3261;SDS011;1643;47.746;9.000;2023-03-29T00:17:29;3.27;;;2.97;;
3261;SDS011;1643;47.746;9.000;2023-03-29T00:19:55;7.30;;;3.40;;
3261;SDS011;1643;47.746;9.000;2023-03-29T00:22:20;3.80;;;3.00;;
3261;SDS011;1643;47.746;9.000;2023-03-29T00:24:46;2.97;;;2.70;;
3261;SDS011;1643;47.746;9.000;2023-03-29T00:27:13;4.93;;;3.67;;
3261;SDS011;1643;47.746;9.000;2023-03-29T00:29:40;3.70;;;3.20;;
3261;SDS011;1643;47.746;9.000;2023-03-29T00:32:06;3.97;;;3.67;;
3261;SDS011;1643;47.746;9.000;2023-03-29T00:34:31;6.07;;;3.43;;
3261;SDS011;1643;47.746;9.000;2023-03-29T00:37:00;3.23;;;2.93;;
3261;SDS011;1643;47.746;9.000;2023-03-29T00:39:28;2.77;;;2.53;;
3261;SDS011;1643;47.746;9.000;2023-03-29T00:41:54;3.37;;;2.97;;
3261;SDS011;1643;47.746;9.000;2023-03-29T00:47:21;3.03;;;2.73;;
3261;SDS011;1643;47.746;9.000;2023-03-29T00:49:48;3.07;;;2.87;;
3261;SDS011;1643;47.746;9.000;2023-03-29T00:52:16;3.70;;;3.03;;
3261;SDS011;1643;47.746;9.000;2023-03-29T00:54:45;2.77;;;2.57;;
3261;SDS011;1643;47.746;9.000;2023-03-29T00:57:14;2.93;;;2.70;;
3261;SDS011;1643;47.746;9.000;2023-03-29T00:59:43;5.63;;;2.50;;
3261;SDS011;1643;47.746;9.000;2023-03-29T01:02:10;2.87;;;2.60;;
3261;SDS011;1643;47.746;9.000;2023-03-29T01:04:45;4.40;;;4.00;;
3261;SDS011;1643;47.746;9.000;2023-03-29T01:07:22;3.40;;;2.63;;
3261;SDS011;1643;47.746;9.000;2023-03-29T01:09:59;3.30;;;3.00;;
3261;SDS011;1643;47.746;9.000;2023-03-29T01:12:38;2.70;;;2.50;;
3261;SDS011;1643;47.746;9.000;2023-03-29T01:15:19;4.53;;;2.47;;
3261;SDS011;1643;47.746;9.000;2023-03-29T01:17:49;3.77;;;2.90;;
3261;SDS011;1643;47.746;9.000;2023-03-29T01:20:37;3.23;;;2.93;;
3261;SDS011;1643;47.746;9.000;2023-03-29T01:28:39;3.40;;;2.67;;
3261;SDS011;1643;47.746;9.000;2023-03-29T01:31:26;3.40;;;2.57;;
3261;SDS011;1643;47.746;9.000;2023-03-29T01:33:59;3.27;;;3.07;;
3261;SDS011;1643;47.746;9.000;2023-03-29T01:36:32;3.77;;;3.10;;
3261;SDS011;1643;47.746;9.000;2023-03-29T01:39:05;3.50;;;2.70;;
3261;SDS011;1643;47.746;9.000;2023-03-29T01:41:39;3.37;;;3.07;;
3261;SDS011;1643;47.746;9.000;2023-03-29T01:44:33;6.93;;;5.33;;
3261;SDS011;1643;47.746;9.000;2023-03-29T01:47:23;4.20;;;3.50;;
3261;SDS011;1643;47.746;9.000;2023-03-29T01:53:29;3.47;;;3.13;;
3261;SDS011;1643;47.746;9.000;2023-03-29T01:56:09;3.17;;;2.87;;
3261;SDS011;1643;47.746;9.000;2023-03-29T01:58:38;3.50;;;2.80;;
3261;SDS011;1643;47.746;9.000;2023-03-29T02:01:08;2.83;;;2.57;;
3261;SDS011;1643;47.746;9.000;2023-03-29T02:03:38;2.80;;;2.50;;
3261;SDS011;1643;47.746;9.000;2023-03-29T02:06:11;2.90;;;2.70;;
3261;SDS011;1643;47.746;9.000;2023-03-29T02:08:40;3.70;;;3.00;;
3261;SDS011;1643;47.746;9.000;2023-03-29T02:11:06;5.90;;;3.13;;
3261;SDS011;1643;47.746;9.000;2023-03-29T02:13:33;3.37;;;2.60;;
3261;SDS011;1643;47.746;9.000;2023-03-29T02:15:59;3.13;;;2.83;;
3261;SDS011;1643;47.746;9.000;2023-03-29T02:18:27;2.67;;;2.47;;
3261;SDS011;1643;47.746;9.000;2023-03-29T02:20:54;2.90;;;2.60;;
3261;SDS011;1643;47.746;9.000;2023-03-29T02:23:42;3.23;;;2.60;;
3261;SDS011;1643;47.746;9.000;2023-03-29T02:26:11;2.63;;;2.43;;
3261;SDS011;1643;47.746;9.000;2023-03-29T02:28:38;2.83;;;2.53;;
3261;SDS011;1643;47.746;9.000;2023-03-29T02:31:17;3.03;;;2.73;;
3261;SDS011;1643;47.746;9.000;2023-03-29T02:36:32;2.40;;;2.00;;
3261;SDS011;1643;47.746;9.000;2023-03-29T02:39:08;2.47;;;2.27;;
3261;SDS011;1643;47.746;9.000;2023-03-29T02:41:37;3.13;;;2.17;;
3261;SDS011;1643;47.746;9.000;2023-03-29T02:44:05;2.90;;;2.60;;
3261;SDS011;1643;47.746;9.000;2023-03-29T02:46:34;3.77;;;3.00;;
3261;SDS011;1643;47.746;9.000;2023-03-29T02:49:02;2.50;;;2.30;;
3261;SDS011;1643;47.746;9.000;2023-03-29T02:51:32;2.83;;;2.27;;
3261;SDS011;1643;47.746;9.000;2023-03-29T02:54:04;3.30;;;2.53;;
3261;SDS011;1643;47.746;9.000;2023-03-29T02:56:45;2.87;;;2.50;;
3261;SDS011;1643;47.746;9.000;2023-03-29T02:59:13;2.83;;;2.53;;
3261;SDS011;1643;47.746;9.000;2023-03-29T03:01:41;2.43;;;2.33;;
3261;SDS011;1643;47.746;9.000;2023-03-29T03:04:06;2.43;;;2.23;;
3261;SDS011;1643;47.746;9.000;2023-03-29T03:06:36;2.50;;;2.30;;
3261;SDS011;1643;47.746;9.000;2023-03-29T03:09:03;3.50;;;3.00;;
3261;SDS011;1643;47.746;9.000;2023-03-29T03:11:30;2.87;;;2.67;;
3261;SDS011;1643;47.746;9.000;2023-03-29T03:13:56;3.23;;;2.60;;
3261;SDS011;1643;47.746;9.000;2023-03-29T03:16:22;2.43;;;2.23;;
3261;SDS011;1643;47.746;9.000;2023-03-29T03:18:48;3.53;;;2.83;;
3261;SDS011;1643;47.746;9.000;2023-03-29T03:21:15;3.10;;;2.90;;
3261;SDS011;1643;47.746;9.000;2023-03-29T03:23:42;2.57;;;2.37;;
3261;SDS011;1643;47.746;9.000;2023-03-29T03:26:09;3.03;;;2.70;;
3261;SDS011;1643;47.746;9.000;2023-03-29T03:28:35;2.80;;;2.60;;
3261;SDS011;1643;47.746;9.000;2023-03-29T03:31:01;3.53;;;2.60;;
3261;SDS011;1643;47.746;9.000;2023-03-29T03:33:26;3.07;;;2.63;;
3261;SDS011;1643;47.746;9.000;2023-03-29T03:35:53;3.47;;;3.00;;
3261;SDS011;1643;47.746;9.000;2023-03-29T03:38:29;3.00;;;2.43;;
3261;SDS011;1643;47.746;9.000;2023-03-29T03:40:59;3.87;;;2.77;;
3261;SDS011;1643;47.746;9.000;2023-03-29T03:43:25;3.60;;;2.37;;
3261;SDS011;1643;47.746;9.000;2023-03-29T03:45:52;8.40;;;3.90;;
3261;SDS011;1643;47.746;9.000;2023-03-29T03:48:18;3.00;;;2.70;;
3261;SDS011;1643;47.746;9.000;2023-03-29T03:50:51;4.07;;;3.67;;
3261;SDS011;1643;47.746;9.000;2023-03-29T03:53:21;3.57;;;3.27;;
3261;SDS011;1643;47.746;9.000;2023-03-29T03:55:48;2.80;;;2.60;;
3261;SDS011;1643;47.746;9.000;2023-03-29T03:58:17;4.30;;;2.93;;
3261;SDS011;1643;47.746;9.000;2023-03-29T04:00:45;3.80;;;2.60;;
3261;SDS011;1643;47.746;9.000;2023-03-29T04:03:12;3.70;;;2.40;;
3261;SDS011;1643;47.746;9.000;2023-03-29T04:05:38;3.60;;;2.50;;
3261;SDS011;1643;47.746;9.000;2023-03-29T04:08:05;2.80;;;2.60;;
3261;SDS011;1643;47.746;9.000;2023-03-29T04:10:31;2.80;;;2.60;;
3261;SDS011;1643;47.746;9.000;2023-03-29T04:12:58;3.50;;;2.97;;
3261;SDS011;1643;47.746;9.000;2023-03-29T04:15:29;3.20;;;2.90;;
3261;SDS011;1643;47.746;9.000;2023-03-29T04:17:56;6.10;;;4.53;;
3261;SDS011;1643;47.746;9.000;2023-03-29T04:20:23;3.87;;;3.47;;
3261;SDS011;1643;47.746;9.000;2023-03-29T04:22:49;5.60;;;3.03;;
3261;SDS011;1643;47.746;9.000;2023-03-29T04:25:15;3.87;;;3.53;;
3261;SDS011;1643;47.746;9.000;2023-03-29T04:27:41;3.73;;;3.33;;
3261;SDS011;1643;47.746;9.000;2023-03-29T04:30:07;3.83;;;3.53;;
3261;SDS011;1643;47.746;9.000;2023-03-29T04:32:33;4.87;;;3.90;;
3261;SDS011;1643;47.746;9.000;2023-03-29T04:34:59;3.63;;;3.33;;
3261;SDS011;1643;47.746;9.000;2023-03-29T04:37:26;3.50;;;3.20;;
3261;SDS011;1643;47.746;9.000;2023-03-29T04:39:53;5.83;;;4.37;;
3261;SDS011;1643;47.746;9.000;2023-03-29T04:42:19;4.50;;;3.57;;
3261;SDS011;1643;47.746;9.000;2023-03-29T04:44:44;3.43;;;2.80;;
3261;SDS011;1643;47.746;9.000;2023-03-29T04:47:10;3.67;;;3.00;;
3261;SDS011;1643;47.746;9.000;2023-03-29T04:49:37;3.03;;;2.83;;
3261;SDS011;1643;47.746;9.000;2023-03-29T04:52:03;3.07;;;2.87;;
3261;SDS011;1643;47.746;9.000;2023-03-29T04:54:29;2.77;;;2.23;;
3261;SDS011;1643;47.746;9.000;2023-03-29T04:56:54;6.30;;;3.00;;
3261;SDS011;1643;47.746;9.000;2023-03-29T04:59:20;3.33;;;2.90;;
3261;SDS011;1643;47.746;9.000;2023-03-29T05:01:46;7.30;;;2.67;;
3261;SDS011;1643;47.746;9.000;2023-03-29T05:04:12;3.73;;;3.20;;
3261;SDS011;1643;47.746;9.000;2023-03-29T05:06:38;5.50;;;2.53;;
3261;SDS011;1643;47.746;9.000;2023-03-29T05:09:04;6.87;;;5.13;;
3261;SDS011;1643;47.746;9.000;2023-03-29T05:11:30;13.40;;;7.70;;
3261;SDS011;1643;47.746;9.000;2023-03-29T05:13:56;6.60;;;5.27;;
3261;SDS011;1643;47.746;9.000;2023-03-29T05:16:26;5.83;;;4.57;;
3261;SDS011;1643;47.746;9.000;2023-03-29T05:18:54;5.27;;;3.70;;
3261;SDS011;1643;47.746;9.000;2023-03-29T05:21:20;6.93;;;5.30;;
3261;SDS011;1643;47.746;9.000;2023-03-29T05:23:46;6.27;;;5.10;;
3261;SDS011;1643;47.746;9.000;2023-03-29T05:26:12;6.00;;;4.37;;
3261;SDS011;1643;47.746;9.000;2023-03-29T05:28:39;5.20;;;4.17;;
3261;SDS011;1643;47.746;9.000;2023-03-29T05:31:05;4.50;;;3.57;;
3261;SDS011;1643;47.746;9.000;2023-03-29T05:33:32;2.80;;;2.60;;
3261;SDS011;1643;47.746;9.000;2023-03-29T05:36:02;5.53;;;3.47;;
3261;SDS011;1643;47.746;9.000;2023-03-29T05:38:29;3.77;;;3.43;;
3261;SDS011;1643;47.746;9.000;2023-03-29T05:40:56;2.77;;;2.43;;
3261;SDS011;1643;47.746;9.000;2023-03-29T05:43:22;5.60;;;2.70;;
3261;SDS011;1643;47.746;9.000;2023-03-29T05:45:48;3.90;;;2.00;;
3261;SDS011;1643;47.746;9.000;2023-03-29T05:48:16;2.40;;;2.10;;
3261;SDS011;1643;47.746;9.000;2023-03-29T05:50:45;2.80;;;2.60;;
3261;SDS011;1643;47.746;9.000;2023-03-29T05:53:11;3.07;;;2.77;;
3261;SDS011;1643;47.746;9.000;2023-03-29T05:55:37;3.17;;;2.20;;
3261;SDS011;1643;47.746;9.000;2023-03-29T05:58:02;2.33;;;2.20;;
3261;SDS011;1643;47.746;9.000;2023-03-29T06:00:28;2.60;;;2.40;;
3261;SDS011;1643;47.746;9.000;2023-03-29T06:02:55;2.93;;;2.70;;
3261;SDS011;1643;47.746;9.000;2023-03-29T06:05:21;3.20;;;2.03;;
3261;SDS011;1643;47.746;9.000;2023-03-29T06:07:47;4.70;;;2.50;;
3261;SDS011;1643;47.746;9.000;2023-03-29T06:10:16;3.77;;;2.83;;
3261;SDS011;1643;47.746;9.000;2023-03-29T06:12:42;3.20;;;2.90;;
3261;SDS011;1643;47.746;9.000;2023-03-29T06:15:08;2.93;;;2.63;;
3261;SDS011;1643;47.746;9.000;2023-03-29T06:17:34;2.27;;;2.17;;
3261;SDS011;1643;47.746;9.000;2023-03-29T06:20:00;2.67;;;2.47;;
3261;SDS011;1643;47.746;9.000;2023-03-29T06:22:26;3.10;;;2.80;;
3261;SDS011;1643;47.746;9.000;2023-03-29T06:24:52;5.70;;;3.40;;
3261;SDS011;1643;47.746;9.000;2023-03-29T06:27:18;3.20;;;3.00;;
3261;SDS011;1643;47.746;9.000;2023-03-29T06:29:44;3.00;;;2.63;;
3261;SDS011;1643;47.746;9.000;2023-03-29T06:32:09;2.63;;;2.40;;
3261;SDS011;1643;47.746;9.000;2023-03-29T06:34:35;2.50;;;2.30;;
3261;SDS011;1643;47.746;9.000;2023-03-29T06:37:01;3.90;;;2.37;;
3261;SDS011;1643;47.746;9.000;2023-03-29T06:39:27;2.47;;;2.20;;
3261;SDS011;1643;47.746;9.000;2023-03-29T06:41:54;3.30;;;2.67;;
3261;SDS011;1643;47.746;9.000;2023-03-29T06:44:20;3.70;;;2.00;;
3261;SDS011;1643;47.746;9.000;2023-03-29T06:46:45;2.67;;;1.97;;
3261;SDS011;1643;47.746;9.000;2023-03-29T06:49:11;2.97;;;1.90;;
3261;SDS011;1643;47.746;9.000;2023-03-29T06:51:37;2.33;;;2.13;;
3261;SDS011;1643;47.746;9.000;2023-03-29T06:54:04;2.00;;;1.80;;
3261;SDS011;1643;47.746;9.000;2023-03-29T06:56:29;2.63;;;2.30;;
3261;SDS011;1643;47.746;9.000;2023-03-29T06:58:56;3.83;;;2.57;;
3261;SDS011;1643;47.746;9.000;2023-03-29T07:01:22;6.20;;;2.30;;
3261;SDS011;1643;47.746;9.000;2023-03-29T07:03:47;2.90;;;2.60;;
3261;SDS011;1643;47.746;9.000;2023-03-29T07:06:13;4.60;;;2.50;;
3261;SDS011;1643;47.746;9.000;2023-03-29T07:08:41;5.47;;;2.37;;
3261;SDS011;1643;47.746;9.000;2023-03-29T07:11:10;2.90;;;2.60;;
3261;SDS011;1643;47.746;9.000;2023-03-29T07:13:38;4.07;;;3.77;;
3261;SDS011;1643;47.746;9.000;2023-03-29T07:16:11;5.10;;;2.83;;
3261;SDS011;1643;47.746;9.000;2023-03-29T07:18:40;4.23;;;2.43;;
3261;SDS011;1643;47.746;9.000;2023-03-29T07:21:08;2.37;;;2.17;;
3261;SDS011;1643;47.746;9.000;2023-03-29T07:23:35;2.73;;;2.40;;
3261;SDS011;1643;47.746;9.000;2023-03-29T07:26:02;4.00;;;3.53;;
3261;SDS011;1643;47.746;9.000;2023-03-29T07:28:29;2.60;;;2.40;;
3261;SDS011;1643;47.746;9.000;2023-03-29T07:31:05;5.30;;;2.10;;
3261;SDS011;1643;47.746;9.000;2023-03-29T07:33:34;2.30;;;2.10;;
3261;SDS011;1643;47.746;9.000;2023-03-29T07:36:00;4.60;;;3.77;;
3261;SDS011;1643;47.746;9.000;2023-03-29T07:38:27;5.50;;;3.83;;
3261;SDS011;1643;47.746;9.000;2023-03-29T07:40:53;5.70;;;3.90;;
3261;SDS011;1643;47.746;9.000;2023-03-29T07:43:19;4.50;;;3.33;;
3261;SDS011;1643;47.746;9.000;2023-03-29T07:45:45;4.57;;;3.40;;
3261;SDS011;1643;47.746;9.000;2023-03-29T07:48:11;5.20;;;3.83;;
3261;SDS011;1643;47.746;9.000;2023-03-29T07:50:37;3.70;;;2.70;;
3261;SDS011;1643;47.746;9.000;2023-03-29T07:53:03;2.80;;;2.40;;
3261;SDS011;1643;47.746;9.000;2023-03-29T07:55:28;2.40;;;2.20;;
3261;SDS011;1643;47.746;9.000;2023-03-29T07:57:55;3.43;;;2.27;;
3261;SDS011;1643;47.746;9.000;2023-03-29T08:00:21;1.93;;;1.80;;
3261;SDS011;1643;47.746;9.000;2023-03-29T08:02:49;3.20;;;1.70;;
3261;SDS011;1643;47.746;9.000;2023-03-29T08:05:16;1.87;;;1.77;;
3261;SDS011;1643;47.746;9.000;2023-03-29T08:07:43;2.80;;;1.93;;
3261;SDS011;1643;47.746;9.000;2023-03-29T08:10:14;2.27;;;2.07;;
3261;SDS011;1643;47.746;9.000;2023-03-29T08:12:41;2.07;;;1.60;;
3261;SDS011;1643;47.746;9.000;2023-03-29T08:15:08;4.03;;;1.90;;
3261;SDS011;1643;47.746;9.000;2023-03-29T08:17:35;2.80;;;1.70;;
3261;SDS011;1643;47.746;9.000;2023-03-29T08:20:01;1.93;;;1.73;;
3261;SDS011;1643;47.746;9.000;2023-03-29T08:22:27;1.87;;;1.77;;
3261;SDS011;1643;47.746;9.000;2023-03-29T08:24:53;2.30;;;1.63;;
3261;SDS011;1643;47.746;9.000;2023-03-29T08:27:19;2.40;;;2.03;;
3261;SDS011;1643;47.746;9.000;2023-03-29T08:29:45;2.77;;;2.57;;
3261;SDS011;1643;47.746;9.000;2023-03-29T08:32:11;3.00;;;2.27;;
3261;SDS011;1643;47.746;9.000;2023-03-29T08:34:36;1.77;;;1.67;;
3261;SDS011;1643;47.746;9.000;2023-03-29T08:37:02;3.00;;;2.07;;
3261;SDS011;1643;47.746;9.000;2023-03-29T08:39:29;3.80;;;2.53;;
3261;SDS011;1643;47.746;9.000;2023-03-29T08:47:19;3.87;;;3.13;;
3261;SDS011;1643;47.746;9.000;2023-03-29T08:49:48;3.10;;;2.80;;
3261;SDS011;1643;47.746;9.000;2023-03-29T08:55:04;4.30;;;2.97;;
3261;SDS011;1643;47.746;9.000;2023-03-29T08:57:40;3.20;;;2.70;;
3261;SDS011;1643;47.746;9.000;2023-03-29T09:00:32;4.13;;;2.83;;
3261;SDS011;1643;47.746;9.000;2023-03-29T09:03:15;4.23;;;2.60;;
3261;SDS011;1643;47.746;9.000;2023-03-29T09:05:49;3.10;;;2.80;;
3261;SDS011;1643;47.746;9.000;2023-03-29T09:08:46;2.53;;;2.33;;
3261;SDS011;1643;47.746;9.000;2023-03-29T09:14:00;4.60;;;2.40;;
3261;SDS011;1643;47.746;9.000;2023-03-29T09:16:50;2.70;;;2.20;;
3261;SDS011;1643;47.746;9.000;2023-03-29T09:30:31;2.50;;;2.30;;
3261;SDS011;1643;47.746;9.000;2023-03-29T09:35:51;4.13;;;2.63;;
3261;SDS011;1643;47.746;9.000;2023-03-29T09:38:21;2.50;;;2.30;;
3261;SDS011;1643;47.746;9.000;2023-03-29T09:40:54;2.50;;;2.30;;
3261;SDS011;1643;47.746;9.000;2023-03-29T09:43:31;2.80;;;2.50;;
3261;SDS011;1643;47.746;9.000;2023-03-29T09:46:01;5.03;;;2.63;;
3261;SDS011;1643;47.746;9.000;2023-03-29T09:48:30;2.53;;;2.30;;
3261;SDS011;1643;47.746;9.000;2023-03-29T09:51:01;3.43;;;2.37;;
3261;SDS011;1643;47.746;9.000;2023-03-29T09:53:31;2.73;;;2.10;;
3261;SDS011;1643;47.746;9.000;2023-03-29T09:55:56;2.63;;;2.27;;
3261;SDS011;1643;47.746;9.000;2023-03-29T09:58:25;2.50;;;2.30;;
3261;SDS011;1643;47.746;9.000;2023-03-29T10:00:58;3.93;;;3.10;;
3261;SDS011;1643;47.746;9.000;2023-03-29T10:03:29;3.83;;;2.93;;
3261;SDS011;1643;47.746;9.000;2023-03-29T10:05:56;2.63;;;2.43;;
3261;SDS011;1643;47.746;9.000;2023-03-29T10:11:11;3.37;;;2.80;;
3261;SDS011;1643;47.746;9.000;2023-03-29T10:13:45;5.83;;;2.57;;
3261;SDS011;1643;47.746;9.000;2023-03-29T10:16:22;3.37;;;2.50;;
3261;SDS011;1643;47.746;9.000;2023-03-29T10:21:43;3.37;;;2.63;;
3261;SDS011;1643;47.746;9.000;2023-03-29T10:24:11;2.97;;;2.40;;
3261;SDS011;1643;47.746;9.000;2023-03-29T10:26:36;3.00;;;2.60;;
3261;SDS011;1643;47.746;9.000;2023-03-29T10:29:03;4.20;;;2.77;;
3261;SDS011;1643;47.746;9.000;2023-03-29T10:31:31;3.57;;;2.53;;
3261;SDS011;1643;47.746;9.000;2023-03-29T10:34:00;5.03;;;2.40;;
3261;SDS011;1643;47.746;9.000;2023-03-29T10:36:27;3.30;;;2.50;;
3261;SDS011;1643;47.746;9.000;2023-03-29T10:38:55;5.57;;;2.27;;
3261;SDS011;1643;47.746;9.000;2023-03-29T10:41:23;2.93;;;2.60;;
3261;SDS011;1643;47.746;9.000;2023-03-29T10:43:51;7.63;;;2.50;;
3261;SDS011;1643;47.746;9.000;2023-03-29T10:49:13;2.70;;;1.87;;
3261;SDS011;1643;47.746;9.000;2023-03-29T10:51:45;1.63;;;1.53;;
3261;SDS011;1643;47.746;9.000;2023-03-29T10:54:13;2.20;;;1.80;;
3261;SDS011;1643;47.746;9.000;2023-03-29T10:56:46;1.70;;;1.60;;
3261;SDS011;1643;47.746;9.000;2023-03-29T10:59:23;1.63;;;1.53;;
3261;SDS011;1643;47.746;9.000;2023-03-29T11:04:41;1.50;;;1.40;;
3261;SDS011;1643;47.746;9.000;2023-03-29T11:25:19;1.80;;;1.60;;
3261;SDS011;1643;47.746;9.000;2023-03-29T11:31:17;3.63;;;1.60;;
3261;SDS011;1643;47.746;9.000;2023-03-29T11:42:01;1.60;;;1.50;;
3261;SDS011;1643;47.746;9.000;2023-03-29T11:44:35;1.40;;;1.30;;
3261;SDS011;1643;47.746;9.000;2023-03-29T11:47:13;2.53;;;1.47;;
3261;SDS011;1643;47.746;9.000;2023-03-29T11:55:18;2.90;;;1.40;;
3261;SDS011;1643;47.746;9.000;2023-03-29T12:00:28;6.77;;;2.00;;
3261;SDS011;1643;47.746;9.000;2023-03-29T12:03:11;3.27;;;1.23;;
3261;SDS011;1643;47.746;9.000;2023-03-29T12:05:57;1.60;;;1.40;;
3261;SDS011;1643;47.746;9.000;2023-03-29T12:08:34;2.87;;;1.23;;
3261;SDS011;1643;47.746;9.000;2023-03-29T12:14:01;1.87;;;1.40;;
3261;SDS011;1643;47.746;9.000;2023-03-29T12:19:16;1.47;;;1.27;;
3261;SDS011;1643;47.746;9.000;2023-03-29T12:21:43;2.10;;;1.67;;
3261;SDS011;1643;47.746;9.000;2023-03-29T12:24:11;1.70;;;1.23;;
3261;SDS011;1643;47.746;9.000;2023-03-29T12:40:45;2.93;;;1.40;;
3261;SDS011;1643;47.746;9.000;2023-03-29T12:43:22;1.73;;;1.40;;
3261;SDS011;1643;47.746;9.000;2023-03-29T12:46:14;4.20;;;1.20;;
3261;SDS011;1643;47.746;9.000;2023-03-29T12:48:56;3.80;;;1.40;;
3261;SDS011;1643;47.746;9.000;2023-03-29T12:51:30;2.40;;;1.53;;
3261;SDS011;1643;47.746;9.000;2023-03-29T13:02:00;1.50;;;1.40;;
3261;SDS011;1643;47.746;9.000;2023-03-29T13:04:50;1.30;;;1.20;;
3261;SDS011;1643;47.746;9.000;2023-03-29T13:09:52;3.83;;;1.43;;
3261;SDS011;1643;47.746;9.000;2023-03-29T13:14:57;3.33;;;1.80;;
3261;SDS011;1643;47.746;9.000;2023-03-29T13:20:15;4.67;;;1.20;;
3261;SDS011;1643;47.746;9.000;2023-03-29T13:23:05;5.50;;;1.73;;
3261;SDS011;1643;47.746;9.000;2023-03-29T13:37:07;2.10;;;1.47;;
3261;SDS011;1643;47.746;9.000;2023-03-29T13:39:49;1.40;;;1.30;;
3261;SDS011;1643;47.746;9.000;2023-03-29T13:42:23;2.93;;;1.40;;
3261;SDS011;1643;47.746;9.000;2023-03-29T13:53:56;2.70;;;1.60;;
3261;SDS011;1643;47.746;9.000;2023-03-29T13:56:25;3.53;;;1.57;;
3261;SDS011;1643;47.746;9.000;2023-03-29T13:59:14;10.13;;;1.90;;
3261;SDS011;1643;47.746;9.000;2023-03-29T14:02:04;7.87;;;1.97;;
3261;SDS011;1643;47.746;9.000;2023-03-29T14:04:31;3.80;;;1.30;;
3261;SDS011;1643;47.746;9.000;2023-03-29T14:07:04;4.33;;;1.40;;
3261;SDS011;1643;47.746;9.000;2023-03-29T14:09:31;2.50;;;1.50;;
3261;SDS011;1643;47.746;9.000;2023-03-29T14:12:01;6.50;;;2.13;;
3261;SDS011;1643;47.746;9.000;2023-03-29T14:14:28;2.73;;;1.37;;
3261;SDS011;1643;47.746;9.000;2023-03-29T14:16:55;3.13;;;1.63;;
3261;SDS011;1643;47.746;9.000;2023-03-29T14:19:32;7.97;;;1.60;;
3261;SDS011;1643;47.746;9.000;2023-03-29T14:22:00;3.13;;;1.87;;
3261;SDS011;1643;47.746;9.000;2023-03-29T14:24:37;3.10;;;1.53;;
3261;SDS011;1643;47.746;9.000;2023-03-29T14:27:05;3.63;;;1.53;;
3261;SDS011;1643;47.746;9.000;2023-03-29T14:29:34;3.77;;;1.60;;
3261;SDS011;1643;47.746;9.000;2023-03-29T14:32:09;4.00;;;1.77;;
3261;SDS011;1643;47.746;9.000;2023-03-29T14:34:37;1.90;;;1.40;;
3261;SDS011;1643;47.746;9.000;2023-03-29T14:37:04;5.23;;;1.33;;
3261;SDS011;1643;47.746;9.000;2023-03-29T14:39:32;1.87;;;1.20;;
3261;SDS011;1643;47.746;9.000;2023-03-29T14:41:59;3.90;;;1.57;;
3261;SDS011;1643;47.746;9.000;2023-03-29T14:44:31;2.67;;;1.80;;
3261;SDS011;1643;47.746;9.000;2023-03-29T14:46:58;5.40;;;3.90;;
3261;SDS011;1643;47.746;9.000;2023-03-29T14:49:26;24.23;;;14.03;;
3261;SDS011;1643;47.746;9.000;2023-03-29T14:51:52;8.30;;;6.20;;
3261;SDS011;1643;47.746;9.000;2023-03-29T14:54:25;5.53;;;3.83;;
3261;SDS011;1643;47.746;9.000;2023-03-29T14:56:57;2.50;;;2.10;;
3261;SDS011;1643;47.746;9.000;2023-03-29T15:01:53;6.50;;;2.03;;
3261;SDS011;1643;47.746;9.000;2023-03-29T15:04:19;3.10;;;1.47;;
3261;SDS011;1643;47.746;9.000;2023-03-29T15:06:44;2.97;;;1.70;;
3261;SDS011;1643;47.746;9.000;2023-03-29T15:09:13;2.30;;;1.50;;
3261;SDS011;1643;47.746;9.000;2023-03-29T15:11:49;5.13;;;2.37;;
3261;SDS011;1643;47.746;9.000;2023-03-29T15:14:19;2.90;;;1.70;;
3261;SDS011;1643;47.746;9.000;2023-03-29T15:16:48;4.87;;;1.47;;
3261;SDS011;1643;47.746;9.000;2023-03-29T15:19:16;2.50;;;1.77;;
3261;SDS011;1643;47.746;9.000;2023-03-29T15:21:43;8.53;;;1.97;;
3261;SDS011;1643;47.746;9.000;2023-03-29T15:24:22;6.07;;;2.17;;
3261;SDS011;1643;47.746;9.000;2023-03-29T15:26:58;1.70;;;1.30;;
3261;SDS011;1643;47.746;9.000;2023-03-29T15:29:35;2.83;;;1.50;;
3261;SDS011;1643;47.746;9.000;2023-03-29T15:32:08;8.20;;;1.97;;
3261;SDS011;1643;47.746;9.000;2023-03-29T15:34:35;3.53;;;1.63;;
3261;SDS011;1643;47.746;9.000;2023-03-29T15:37:02;3.47;;;1.50;;
3261;SDS011;1643;47.746;9.000;2023-03-29T15:39:28;4.63;;;1.80;;
3261;SDS011;1643;47.746;9.000;2023-03-29T15:41:54;3.37;;;1.90;;
3261;SDS011;1643;47.746;9.000;2023-03-29T15:44:27;3.77;;;1.50;;
3261;SDS011;1643;47.746;9.000;2023-03-29T15:46:57;5.43;;;1.50;;
3261;SDS011;1643;47.746;9.000;2023-03-29T15:49:24;3.10;;;1.50;;
3261;SDS011;1643;47.746;9.000;2023-03-29T15:51:50;2.50;;;1.47;;
3261;SDS011;1643;47.746;9.000;2023-03-29T15:54:19;4.30;;;1.67;;
3261;SDS011;1643;47.746;9.000;2023-03-29T15:56:48;2.40;;;1.70;;
3261;SDS011;1643;47.746;9.000;2023-03-29T15:59:16;6.60;;;1.40;;
3261;SDS011;1643;47.746;9.000;2023-03-29T16:01:42;4.23;;;2.10;;
3261;SDS011;1643;47.746;9.000;2023-03-29T16:04:15;5.53;;;2.03;;
3261;SDS011;1643;47.746;9.000;2023-03-29T16:06:44;2.80;;;1.60;;
3261;SDS011;1643;47.746;9.000;2023-03-29T16:09:12;5.80;;;1.40;;
3261;SDS011;1643;47.746;9.000;2023-03-29T16:11:38;5.00;;;1.97;;
3261;SDS011;1643;47.746;9.000;2023-03-29T16:14:38;2.23;;;1.70;;
3261;SDS011;1643;47.746;9.000;2023-03-29T16:16:58;11.70;;;1.80;;
3261;SDS011;1643;47.746;9.000;2023-03-29T16:19:25;8.50;;;1.60;;
3261;SDS011;1643;47.746;9.000;2023-03-29T16:21:51;2.17;;;1.50;;
3261;SDS011;1643;47.746;9.000;2023-03-29T16:24:19;5.43;;;1.80;;
3261;SDS011;1643;47.746;9.000;2023-03-29T16:26:47;6.33;;;2.03;;
3261;SDS011;1643;47.746;9.000;2023-03-29T16:29:13;6.43;;;1.57;;
3261;SDS011;1643;47.746;9.000;2023-03-29T16:31:41;3.60;;;1.83;;
3261;SDS011;1643;47.746;9.000;2023-03-29T16:34:08;4.33;;;1.57;;
3261;SDS011;1643;47.746;9.000;2023-03-29T16:36:36;2.60;;;1.67;;
3261;SDS011;1643;47.746;9.000;2023-03-29T16:39:03;2.47;;;1.70;;
3261;SDS011;1643;47.746;9.000;2023-03-29T16:41:29;4.60;;;1.73;;
3261;SDS011;1643;47.746;9.000;2023-03-29T16:43:56;5.93;;;1.93;;
3261;SDS011;1643;47.746;9.000;2023-03-29T16:46:22;8.30;;;1.97;;
3261;SDS011;1643;47.746;9.000;2023-03-29T16:48:49;4.00;;;1.80;;
3261;SDS011;1643;47.746;9.000;2023-03-29T16:51:17;4.97;;;1.70;;
3261;SDS011;1643;47.746;9.000;2023-03-29T16:53:43;3.37;;;1.47;;
3261;SDS011;1643;47.746;9.000;2023-03-29T16:56:09;5.00;;;1.87;;
3261;SDS011;1643;47.746;9.000;2023-03-29T16:58:35;3.23;;;2.00;;
3261;SDS011;1643;47.746;9.000;2023-03-29T17:01:13;3.33;;;1.67;;
3261;SDS011;1643;47.746;9.000;2023-03-29T17:03:40;6.43;;;2.20;;
3261;SDS011;1643;47.746;9.000;2023-03-29T17:06:07;3.83;;;2.10;;
3261;SDS011;1643;47.746;9.000;2023-03-29T17:08:34;7.43;;;2.20;;
3261;SDS011;1643;47.746;9.000;2023-03-29T17:11:00;11.30;;;2.07;;
3261;SDS011;1643;47.746;9.000;2023-03-29T17:13:27;2.63;;;1.43;;
3261;SDS011;1643;47.746;9.000;2023-03-29T17:15:53;4.00;;;1.80;;
3261;SDS011;1643;47.746;9.000;2023-03-29T17:18:20;4.83;;;2.43;;
3261;SDS011;1643;47.746;9.000;2023-03-29T17:20:53;2.60;;;1.60;;
3261;SDS011;1643;47.746;9.000;2023-03-29T17:23:20;4.77;;;1.80;;
3261;SDS011;1643;47.746;9.000;2023-03-29T17:25:46;4.07;;;1.87;;
3261;SDS011;1643;47.746;9.000;2023-03-29T17:28:12;4.07;;;1.60;;
3261;SDS011;1643;47.746;9.000;2023-03-29T17:30:37;2.20;;;1.57;;
3261;SDS011;1643;47.746;9.000;2023-03-29T17:33:03;2.73;;;2.20;;
3261;SDS011;1643;47.746;9.000;2023-03-29T17:35:29;2.80;;;2.20;;
3261;SDS011;1643;47.746;9.000;2023-03-29T17:37:55;15.10;;;2.47;;
3261;SDS011;1643;47.746;9.000;2023-03-29T17:40:22;5.60;;;2.50;;
3261;SDS011;1643;47.746;9.000;2023-03-29T17:42:48;3.67;;;2.03;;
3261;SDS011;1643;47.746;9.000;2023-03-29T17:45:16;6.80;;;3.13;;
3261;SDS011;1643;47.746;9.000;2023-03-29T17:47:42;7.40;;;4.47;;
3261;SDS011;1643;47.746;9.000;2023-03-29T17:50:08;7.87;;;4.00;;
3261;SDS011;1643;47.746;9.000;2023-03-29T17:52:35;3.90;;;2.73;;
3261;SDS011;1643;47.746;9.000;2023-03-29T17:55:00;3.63;;;2.93;;